createdAt,value
2023-05-01T00:00:11.348Z,10.00
2023-05-01T00:02:55.297Z,10.02
2023-05-01T00:05:35.641Z,9.97
2023-05-01T00:08:22.185Z,9.88
2023-05-01T00:11:19.232Z,9.94
2023-05-01T00:13:59.525Z,10.04
2023-05-01T00:16:46.323Z,10.08
2023-05-01T00:19:26.660Z,10.01
2023-05-01T00:22:13.210Z,9.91
2023-05-01T00:25:00.288Z,9.97
2023-05-01T00:27:40.164Z,9.99
2023-05-01T00:30:20.625Z,10.08
2023-05-01T00:33:07.208Z,10.24
2023-05-01T00:35:47.556Z,10.39
2023-05-01T00:38:34.172Z,10.30
2023-05-01T00:41:21.445Z,10.56
2023-05-01T00:44:01.206Z,10.37
2023-05-01T00:46:42.595Z,10.50
2023-05-01T00:49:29.187Z,10.59
2023-05-01T00:52:19.183Z,10.76
2023-05-01T00:54:59.262Z,10.92
2023-05-01T00:57:46.185Z,11.03
2023-05-01T01:00:26.338Z,11.01
2023-05-01T01:03:13.153Z,10.97
2023-05-01T01:06:03.719Z,11.08
2023-05-01T01:09:00.155Z,11.23
2023-05-01T01:11:59.298Z,11.34
2023-05-01T01:14:55.119Z,11.55
2023-05-01T01:18:12.172Z,11.72
2023-05-01T01:21:02.142Z,11.84
2023-05-01T01:24:08.090Z,11.91
2023-05-01T01:27:13.246Z,12.10
2023-05-01T01:30:12.155Z,12.29
2023-05-01T01:33:09.876Z,12.39
2023-05-01T01:36:07.078Z,12.29
2023-05-01T01:39:03.914Z,12.24
2023-05-01T01:41:55.096Z,12.33
2023-05-01T01:45:12.036Z,12.35
2023-05-01T01:48:01.099Z,12.30
2023-05-01T01:50:43.360Z,12.35
2023-05-01T01:53:33.092Z,12.12
2023-05-01T01:56:17.130Z,12.13
2023-05-01T01:59:05.112Z,12.16
2023-05-01T02:01:54.145Z,12.27
2023-05-01T02:04:36.245Z,12.34
2023-05-01T02:07:25.049Z,12.17
2023-05-01T02:10:07.290Z,12.06
2023-05-01T02:12:57.045Z,11.86
2023-05-01T02:15:46.108Z,11.96
2023-05-01T02:18:31.079Z,12.11
2023-05-01T02:21:19.075Z,12.30
2023-05-01T02:24:08.056Z,12.53
2023-05-01T02:27:03.030Z,12.57
2023-05-01T02:29:44.383Z,12.62
2023-05-01T02:32:31.048Z,12.59
2023-05-01T02:35:11.407Z,12.75
2023-05-01T02:38:01.079Z,12.85
2023-05-01T02:40:59.052Z,12.95
2023-05-01T02:43:48.011Z,13.05
2023-05-01T02:46:31.565Z,13.09
2023-05-01T02:49:19.057Z,13.06
2023-05-01T02:52:00.710Z,12.98
2023-05-01T02:54:47.006Z,13.08
2023-05-01T02:57:33.996Z,12.99
2023-05-01T03:00:21.038Z,12.90
2023-05-01T03:03:01.275Z,12.93
2023-05-01T03:05:48.204Z,12.96
2023-05-01T03:08:28.185Z,12.95
2023-05-01T03:11:15.027Z,12.99
2023-05-01T03:13:55.129Z,13.06
2023-05-01T03:16:42.126Z,12.76
2023-05-01T03:19:28.959Z,12.88
2023-05-01T03:22:09.320Z,13.16
2023-05-01T03:24:56.961Z,13.35
2023-05-01T03:27:37.367Z,13.52
2023-05-01T03:30:23.978Z,13.63
2023-05-01T03:33:04.504Z,13.61
2023-05-01T03:35:50.937Z,13.60
2023-05-01T03:38:32.162Z,13.75
2023-05-01T03:41:24.951Z,13.74
2023-05-01T03:44:23.314Z,13.90
2023-05-01T03:47:09.933Z,13.98
2023-05-01T03:49:50.501Z,14.18
2023-05-01T03:52:36.962Z,13.91
2023-05-01T03:55:17.464Z,13.94
2023-05-01T03:58:03.966Z,14.06
2023-05-01T04:00:45.284Z,14.17
2023-05-01T04:03:31.999Z,14.38
2023-05-01T04:06:13.297Z,14.74
2023-05-01T04:09:00.871Z,15.06
2023-05-01T04:11:48.066Z,14.70
2023-05-01T04:14:27.892Z,14.67
2023-05-01T04:17:15.893Z,14.90
2023-05-01T04:19:56.451Z,14.94
2023-05-01T04:22:43.864Z,14.96
2023-05-01T04:25:30.870Z,15.01
2023-05-01T04:28:17.324Z,14.94
2023-05-01T04:31:03.998Z,14.84
2023-05-01T04:33:50.873Z,14.30
2023-05-01T04:36:32.975Z,14.13
2023-05-01T04:39:19.935Z,14.33
2023-05-01T04:42:07.958Z,14.23
2023-05-01T04:44:47.880Z,14.29
2023-05-01T04:47:28.942Z,14.82
2023-05-01T04:50:15.862Z,14.92
2023-05-01T04:52:56.518Z,14.39
2023-05-01T04:55:42.872Z,14.36
2023-05-01T04:58:24.408Z,14.23
2023-05-01T05:01:15.841Z,14.44
2023-05-01T05:03:56.450Z,14.51
2023-05-01T05:06:43.884Z,14.05
2023-05-01T05:09:32.237Z,13.88
2023-05-01T05:12:18.816Z,13.83
2023-05-01T05:14:59.176Z,13.50
2023-05-01T05:17:45.844Z,14.22
2023-05-01T05:20:26.363Z,15.58
2023-05-01T05:23:12.878Z,17.11
2023-05-01T05:25:53.192Z,17.94
2023-05-01T05:28:39.768Z,17.70
2023-05-01T05:31:26.853Z,18.49
2023-05-01T05:34:07.151Z,18.78
2023-05-01T05:36:53.846Z,18.93
2023-05-01T05:39:33.899Z,20.49
2023-05-01T05:42:20.821Z,21.80
2023-05-01T05:45:07.785Z,22.05
2023-05-01T05:47:48.209Z,23.11
2023-05-01T05:50:34.812Z,22.57
2023-05-01T05:53:24.330Z,22.42
2023-05-01T05:56:05.945Z,22.39
2023-05-01T05:58:52.781Z,22.11
2023-05-01T06:01:33.985Z,21.30
2023-05-01T06:04:21.829Z,22.66
2023-05-01T06:07:08.877Z,23.93
2023-05-01T06:09:49.134Z,24.64
2023-05-01T06:12:37.719Z,25.77
2023-05-01T06:15:21.331Z,24.47
2023-05-01T06:18:08.933Z,25.69
2023-05-01T06:20:55.775Z,27.44
2023-05-01T06:23:36.230Z,27.17
2023-05-01T06:26:51.758Z,27.82
2023-05-01T06:29:31.885Z,24.09
2023-05-01T06:32:18.764Z,24.79
2023-05-01T06:34:58.878Z,26.73
2023-05-01T06:37:45.769Z,27.69
2023-05-01T06:40:25.881Z,26.54
2023-05-01T06:43:12.780Z,25.62
2023-05-01T06:45:59.699Z,27.91
2023-05-01T06:48:40.151Z,27.14
2023-05-01T06:51:28.758Z,28.31
2023-05-01T06:54:15.718Z,28.30
2023-05-01T06:57:02.726Z,31.56
2023-05-01T06:59:43.061Z,31.70
2023-05-01T07:02:29.812Z,30.99
2023-05-01T07:05:16.692Z,30.20
2023-05-01T07:08:03.717Z,29.87
2023-05-01T07:10:44.088Z,29.60
2023-05-01T07:13:30.707Z,28.61
2023-05-01T07:16:11.211Z,28.41
2023-05-01T07:18:57.696Z,28.48
2023-05-01T07:21:38.081Z,29.95
2023-05-01T07:24:24.750Z,29.09
2023-05-01T07:40:15.812Z,29.26
2023-05-01T07:43:02.841Z,26.68
2023-05-01T07:45:43.413Z,27.96
2023-05-01T07:48:29.846Z,28.56
2023-05-01T07:51:09.965Z,27.94
2023-05-01T07:53:57.873Z,27.25
2023-05-01T07:56:44.810Z,27.23
2023-05-01T07:59:31.935Z,27.61
2023-05-01T08:02:11.869Z,28.12
2023-05-01T08:04:58.911Z,28.43
2023-05-01T08:07:38.945Z,28.46
2023-05-01T08:10:25.818Z,28.89
2023-05-01T08:13:05.875Z,29.01
2023-05-01T08:15:53.846Z,28.57
2023-05-01T08:18:40.793Z,28.21
2023-05-01T08:21:21.351Z,25.43
2023-05-01T08:24:08.820Z,25.67
2023-05-01T08:26:49.235Z,27.35
2023-05-01T08:29:35.816Z,28.32
2023-05-01T08:32:18.728Z,28.86
2023-05-01T08:35:05.751Z,29.40
2023-05-01T08:37:59.807Z,28.30
2023-05-01T08:40:44.088Z,27.46
2023-05-01T08:43:31.817Z,27.44
2023-05-01T08:46:22.805Z,25.89
2023-05-01T08:49:11.783Z,26.41
2023-05-01T08:51:57.023Z,27.64
2023-05-01T08:54:45.785Z,29.17
2023-05-01T08:57:33.814Z,29.85
2023-05-01T09:00:17.000Z,27.65
2023-05-01T09:03:07.983Z,28.45
2023-05-01T09:05:47.907Z,29.18
2023-05-01T09:08:34.767Z,28.79
2023-05-01T09:11:21.698Z,27.39
2023-05-01T09:14:05.580Z,26.71
2023-05-01T09:16:52.754Z,27.34
2023-05-01T09:19:40.942Z,24.81
2023-05-01T09:22:21.760Z,24.83
2023-05-01T09:25:03.770Z,25.46
2023-05-01T09:27:51.687Z,26.06
2023-05-01T09:30:43.738Z,26.08
2023-05-01T09:33:23.916Z,27.84
2023-05-01T09:36:10.690Z,27.67
2023-05-01T09:38:57.685Z,27.19
2023-05-01T09:41:50.998Z,27.88
2023-05-01T09:44:37.673Z,29.12
2023-05-01T09:47:25.156Z,31.58
2023-05-01T09:50:12.715Z,30.07
2023-05-01T09:52:53.109Z,31.06
2023-05-01T09:55:39.734Z,30.62
2023-05-01T09:58:35.643Z,29.54
2023-05-01T10:01:22.743Z,29.37
2023-05-01T10:04:03.742Z,29.78
2023-05-01T10:06:57.849Z,29.12
2023-05-01T10:09:38.013Z,26.52
2023-05-01T10:12:35.649Z,28.15
2023-05-01T10:15:25.506Z,28.70
2023-05-01T10:18:13.721Z,26.67
2023-05-01T10:21:00.749Z,26.02
2023-05-01T10:23:40.677Z,25.14
2023-05-01T10:26:21.139Z,23.70
2023-05-01T10:29:09.676Z,24.04
2023-05-01T10:31:56.812Z,26.43
2023-05-01T10:34:38.763Z,26.43
2023-05-01T10:37:40.608Z,24.91
2023-05-01T10:40:52.677Z,24.91
2023-05-01T10:43:33.076Z,22.51
2023-05-01T10:46:33.687Z,20.93
2023-05-01T10:49:14.009Z,21.00
2023-05-01T10:52:11.665Z,22.95
2023-05-01T10:54:52.131Z,23.65
2023-05-01T10:57:56.613Z,26.20
2023-05-01T11:00:37.241Z,25.98
2023-05-01T11:03:49.631Z,26.29
2023-05-01T11:06:30.869Z,25.74
2023-05-01T11:09:49.600Z,25.25
2023-05-01T11:12:56.930Z,23.75
2023-05-01T11:15:39.598Z,23.85
2023-05-01T11:18:45.940Z,21.50
2023-05-01T11:21:32.622Z,20.67
2023-05-01T11:24:13.071Z,21.13
2023-05-01T11:26:59.636Z,21.14
2023-05-01T11:29:40.534Z,20.43
2023-05-01T11:32:33.936Z,20.97
2023-05-01T11:35:19.837Z,19.91
2023-05-01T11:38:06.619Z,19.60
2023-05-01T11:41:01.069Z,19.89
2023-05-01T11:43:40.543Z,19.75
2023-05-01T11:46:39.630Z,19.96
2023-05-01T11:49:19.700Z,20.28
2023-05-01T11:52:06.582Z,20.19
2023-05-01T11:55:01.980Z,19.83
2023-05-01T11:57:59.604Z,19.86
2023-05-01T12:00:51.587Z,19.78
2023-05-01T12:03:48.644Z,19.69
2023-05-01T12:06:28.673Z,19.55
2023-05-01T12:09:16.573Z,19.08
2023-05-01T12:11:59.835Z,18.99
2023-05-01T12:14:47.569Z,18.92
2023-05-01T12:17:28.521Z,18.90
2023-05-01T12:20:16.534Z,19.10
2023-05-01T12:22:57.755Z,18.97
2023-05-01T12:25:46.709Z,19.12
2023-05-01T12:28:27.788Z,18.78
2023-05-01T12:31:14.558Z,19.09
2023-05-01T12:34:01.850Z,18.82
2023-05-01T12:36:48.563Z,18.67
2023-05-01T12:39:46.674Z,18.52
2023-05-01T12:42:26.549Z,18.59
2023-05-01T12:45:16.648Z,18.61
2023-05-01T12:48:03.593Z,18.56
2023-05-01T12:50:47.281Z,18.35
2023-05-01T12:53:36.591Z,18.45
2023-05-01T12:56:31.508Z,18.15
2023-05-01T12:59:11.801Z,18.06
2023-05-01T13:02:09.620Z,17.74
2023-05-01T13:04:53.690Z,17.90
2023-05-01T13:07:43.513Z,17.78
2023-05-01T13:10:36.830Z,17.53
2023-05-01T13:13:49.488Z,17.56
2023-05-01T13:16:36.557Z,17.54
2023-05-01T13:19:29.286Z,17.49
2023-05-01T13:22:16.461Z,17.49
2023-05-01T13:24:57.156Z,17.11
2023-05-01T13:27:43.533Z,16.90
2023-05-01T13:30:41.523Z,16.90
2023-05-01T13:33:21.667Z,16.87
2023-05-01T13:36:14.503Z,16.76
2023-05-01T13:39:11.485Z,16.66
2023-05-01T13:41:52.456Z,16.69
2023-05-01T13:44:39.855Z,16.79
2023-05-01T13:47:19.887Z,16.83
2023-05-01T13:50:06.441Z,16.87
2023-05-01T13:52:47.668Z,16.84
2023-05-01T13:55:35.480Z,16.80
2023-05-01T13:58:22.494Z,16.78
2023-05-01T14:01:02.538Z,16.84
2023-05-01T14:03:43.563Z,16.92
2023-05-01T14:06:32.512Z,16.92
2023-05-01T14:09:12.897Z,16.55
2023-05-01T14:12:01.416Z,16.64
2023-05-01T14:14:47.566Z,16.61
2023-05-01T14:17:44.388Z,16.36
2023-05-01T14:20:27.693Z,16.30
2023-05-01T14:23:14.436Z,16.41
2023-05-01T14:25:54.808Z,16.39
2023-05-01T14:28:41.394Z,16.30
2023-05-01T14:31:28.512Z,16.27
2023-05-01T14:34:14.025Z,16.11
2023-05-01T14:37:02.338Z,15.93
2023-05-01T14:39:49.402Z,15.94
2023-05-01T14:42:38.401Z,15.90
2023-05-01T14:45:22.533Z,15.87
2023-05-01T14:48:09.409Z,15.66
2023-05-01T14:50:49.502Z,15.51
2023-05-01T14:53:40.379Z,15.50
2023-05-01T14:56:20.997Z,15.43
2023-05-01T14:59:07.418Z,15.34
2023-05-01T15:01:47.666Z,15.38
2023-05-01T15:04:34.436Z,15.25
2023-05-01T15:07:15.291Z,15.33
2023-05-01T15:10:02.435Z,15.26
2023-05-01T15:12:42.496Z,15.27
2023-05-01T15:15:29.362Z,15.17
2023-05-01T15:18:09.651Z,15.13
2023-05-01T15:20:56.394Z,15.15
2023-05-01T15:23:43.406Z,15.02
2023-05-01T15:26:23.770Z,14.96
2023-05-01T15:29:10.369Z,15.13
2023-05-01T15:31:58.457Z,15.07
2023-05-01T15:34:56.714Z,15.04
2023-05-01T15:37:37.786Z,14.95
2023-05-01T15:40:25.364Z,15.03
2023-05-01T15:43:13.363Z,15.04
2023-05-01T15:45:53.473Z,15.02
2023-05-01T15:48:33.885Z,14.89
2023-05-01T15:51:20.332Z,14.81
2023-05-01T15:54:07.294Z,14.93
2023-05-01T15:56:54.448Z,14.68
2023-05-01T15:59:41.330Z,14.68
2023-05-01T16:02:28.401Z,14.61
2023-05-01T16:05:08.715Z,14.64
2023-05-01T16:08:06.334Z,14.63
2023-05-01T16:10:46.434Z,14.62
2023-05-01T16:13:33.316Z,14.46
2023-05-01T16:16:17.662Z,14.56
2023-05-01T16:19:06.282Z,14.47
2023-05-01T16:21:53.270Z,14.38
2023-05-01T16:24:41.265Z,14.39
2023-05-01T16:27:24.522Z,14.38
2023-05-01T16:30:12.260Z,14.34
2023-05-01T16:32:59.239Z,14.25
2023-05-01T16:35:47.266Z,14.21
2023-05-01T16:38:27.913Z,14.30
2023-05-01T16:41:14.254Z,14.16
2023-05-01T16:43:54.365Z,14.18
2023-05-01T16:46:41.291Z,14.09
2023-05-01T16:49:22.396Z,14.02
2023-05-01T16:52:09.234Z,14.03
2023-05-01T16:54:49.314Z,14.00
2023-05-01T16:57:36.265Z,13.93
2023-05-01T17:00:23.192Z,13.93
2023-05-01T17:03:04.062Z,13.88
2023-05-01T17:05:51.249Z,13.82
2023-05-01T17:08:31.635Z,13.81
2023-05-01T17:11:21.201Z,13.71
2023-05-01T17:14:01.686Z,13.71
2023-05-01T17:16:50.057Z,13.70
2023-05-01T17:19:37.258Z,13.73
2023-05-01T17:22:17.361Z,13.74
2023-05-01T17:25:04.183Z,13.79
2023-05-01T17:27:44.313Z,13.79
2023-05-01T17:30:31.170Z,13.70
2023-05-01T17:33:11.372Z,13.67
2023-05-01T17:35:58.186Z,13.55
2023-05-01T17:38:38.318Z,13.50
2023-05-01T17:41:25.196Z,13.48
2023-05-01T17:44:05.403Z,13.42
2023-05-01T17:46:52.170Z,13.48
2023-05-01T17:49:32.936Z,13.54
2023-05-01T17:52:20.179Z,13.48
2023-05-01T17:55:00.707Z,13.32
2023-05-01T17:57:48.215Z,13.32
2023-05-01T18:00:28.944Z,13.21
2023-05-01T18:03:16.290Z,13.19
2023-05-01T18:06:03.191Z,13.26
2023-05-01T18:08:50.282Z,13.22
2023-05-01T18:11:30.230Z,13.21
2023-05-01T18:14:17.138Z,13.22
2023-05-01T18:16:57.258Z,13.17
2023-05-01T18:19:44.120Z,13.22
2023-05-01T18:22:24.274Z,13.25
2023-05-01T18:25:12.109Z,13.34
2023-05-01T18:27:52.310Z,13.33
2023-05-01T18:30:40.134Z,13.34
2023-05-01T18:33:21.562Z,13.32
2023-05-01T18:36:08.160Z,13.31
2023-05-01T18:38:48.278Z,13.27
2023-05-01T18:41:35.084Z,13.19
2023-05-01T18:44:15.220Z,13.13
2023-05-01T18:47:02.112Z,13.10
2023-05-01T18:49:42.169Z,12.99
2023-05-01T18:52:29.120Z,13.06
2023-05-01T18:55:10.243Z,13.05
2023-05-01T18:57:57.048Z,12.98
2023-05-01T19:00:37.184Z,12.93
2023-05-01T19:03:25.081Z,12.75
2023-05-01T19:06:05.400Z,12.69
2023-05-01T19:08:52.126Z,12.52
2023-05-01T19:11:32.325Z,12.47
2023-05-01T19:14:19.067Z,12.42
2023-05-01T19:17:06.040Z,12.34
2023-05-01T19:19:46.525Z,12.41
2023-05-01T19:22:33.051Z,12.42
2023-05-01T19:25:13.452Z,12.43
2023-05-01T19:28:00.106Z,12.36
2023-05-01T19:41:54.024Z,11.36
2023-05-01T19:44:34.353Z,11.43
2023-05-01T19:47:20.992Z,11.58
2023-05-01T19:50:01.639Z,11.62
2023-05-01T19:52:48.948Z,11.69
2023-05-01T19:55:35.939Z,11.62
2023-05-01T19:58:22.950Z,11.67
2023-05-01T20:01:05.115Z,11.72
2023-05-01T20:03:51.954Z,11.75
2023-05-01T20:06:32.426Z,11.68
2023-05-01T20:09:18.925Z,11.67
2023-05-01T20:11:59.352Z,11.67
2023-05-01T20:14:45.992Z,11.64
2023-05-01T20:17:34.019Z,11.65
2023-05-01T20:20:20.923Z,11.60
2023-05-01T20:23:21.969Z,11.56
2023-05-01T20:26:08.911Z,11.58
2023-05-01T20:28:51.034Z,11.47
2023-05-01T20:31:38.015Z,11.53
2023-05-01T20:34:25.901Z,11.51
2023-05-01T20:37:06.983Z,11.38
2023-05-01T20:39:53.906Z,11.41
2023-05-01T20:42:34.086Z,11.39
2023-05-01T20:45:20.930Z,11.32
2023-05-01T20:48:01.863Z,11.29
2023-05-01T20:50:49.955Z,11.28
2023-05-01T20:53:29.948Z,11.27
2023-05-01T20:56:16.897Z,11.24
2023-05-01T20:58:57.016Z,11.17
2023-05-01T21:01:43.969Z,11.17
2023-05-01T21:04:30.912Z,11.08
2023-05-01T21:07:17.877Z,11.13
2023-05-01T21:09:58.219Z,11.14
2023-05-01T21:12:44.863Z,11.10
2023-05-01T21:15:25.056Z,10.95
2023-05-01T21:18:11.872Z,10.93
2023-05-01T21:20:51.958Z,10.91
2023-05-01T21:23:38.836Z,10.80
2023-05-01T21:26:21.383Z,10.78
2023-05-01T21:29:07.861Z,10.73
2023-05-01T21:31:49.110Z,10.62
2023-05-01T21:34:35.888Z,10.51
2023-05-01T21:37:18.710Z,10.46
2023-05-01T21:40:06.834Z,10.38
2023-05-01T21:42:46.962Z,10.24
2023-05-01T21:45:33.825Z,10.33
2023-05-01T21:48:21.827Z,10.23
2023-05-01T21:51:08.859Z,10.40
2023-05-01T21:53:55.810Z,10.35
2023-05-01T21:56:36.305Z,10.40
2023-05-01T21:59:22.798Z,10.47
2023-05-01T22:02:11.110Z,10.39
2023-05-01T22:04:57.793Z,10.41
2023-05-01T22:07:48.804Z,10.39
2023-05-01T22:10:35.840Z,10.36
2023-05-01T22:13:16.293Z,10.33
2023-05-01T22:16:02.896Z,10.33
2023-05-01T22:18:43.139Z,10.31
2023-05-01T22:21:29.817Z,10.28
2023-05-01T22:24:10.240Z,10.33
2023-05-01T22:26:56.822Z,10.37
2023-05-01T22:29:37.226Z,10.46
2023-05-01T22:32:23.828Z,10.45
2023-05-01T22:35:10.776Z,10.54
2023-05-01T22:37:57.771Z,10.51
2023-05-01T22:40:44.906Z,10.54
2023-05-01T22:43:24.756Z,10.57
2023-05-01T22:46:05.683Z,10.70
2023-05-01T22:48:52.744Z,10.62
2023-05-01T22:51:39.770Z,10.55
2023-05-01T22:54:19.993Z,10.57
2023-05-01T22:57:06.716Z,10.51
2023-05-01T22:59:46.866Z,10.61
2023-05-01T23:02:33.863Z,10.56
2023-05-01T23:05:13.814Z,10.43
2023-05-01T23:08:00.694Z,10.39
2023-05-01T23:10:47.718Z,10.39
2023-05-01T23:13:34.739Z,10.41
2023-05-01T23:16:18.225Z,10.49
2023-05-01T23:19:04.750Z,10.46
2023-05-01T23:21:45.827Z,10.30
2023-05-01T23:24:43.728Z,10.21
2023-05-01T23:27:24.850Z,10.19
2023-05-01T23:30:11.691Z,10.17
2023-05-01T23:32:58.721Z,10.18
2023-05-01T23:35:39.027Z,9.93
2023-05-01T23:38:25.813Z,9.87
2023-05-01T23:41:12.803Z,9.87
2023-05-01T23:43:54.642Z,9.88
2023-05-01T23:46:35.908Z,9.74
2023-05-01T23:49:22.671Z,9.69
2023-05-01T23:52:09.637Z,9.63
2023-05-01T23:54:49.743Z,9.56
2023-05-01T23:57:36.686Z,9.38
